Terminal Aerodrome Forecast
Issued by NWS

Home | Current Version | Previous Version | Text Only | Print | Product List | Glossary On
Versions: 1 2 3 4 5 6 7 8 9 10 11 12 13 14 15 16
085
FTUS41 KAKQ 141135
TAFPHF
TAF
KPHF 141135Z 1412/1512 36012G18KT P6SM SKC
     FM141700 36007KT P6SM SCT250
     FM142100 VRB05KT P6SM SCT100 BKN150
     FM150300 11003KT P6SM FEW030 OVC060
     FM150900 08008KT 3SM -SN BKN008 OVC020=

USA.gov is the U.S. government's official web portal to all federal, state and local government web resources and services.